createdAt,value
2022-08-29T00:00:33.865Z,15.10
2022-08-29T00:03:01.295Z,15.10
2022-08-29T00:05:30.036Z,15.10
2022-08-29T00:07:58.420Z,15.10
2022-08-29T00:10:25.868Z,15.10
2022-08-29T00:12:52.694Z,15.10
2022-08-29T00:15:20.380Z,15.00
2022-08-29T00:17:47.321Z,15.00
2022-08-29T00:20:16.148Z,15.00
2022-08-29T00:22:43.269Z,14.90
2022-08-29T00:25:12.780Z,14.90
2022-08-29T00:27:39.861Z,14.90
2022-08-29T00:30:10.206Z,14.90
2022-08-29T00:32:37.079Z,14.90
2022-08-29T00:35:04.729Z,14.90
2022-08-29T00:37:31.583Z,14.90
2022-08-29T00:39:58.538Z,14.90
2022-08-29T00:42:25.622Z,14.90
2022-08-29T00:44:52.482Z,14.90
2022-08-29T00:47:22.871Z,14.80
2022-08-29T00:49:51.864Z,14.80
2022-08-29T00:52:21.193Z,14.80
2022-08-29T00:54:50.502Z,14.80
2022-08-29T00:57:18.287Z,14.80
2022-08-29T00:59:45.603Z,14.80
2022-08-29T01:02:12.484Z,14.80
2022-08-29T01:04:39.701Z,14.80
2022-08-29T01:07:09.887Z,14.80
2022-08-29T01:09:37.420Z,14.70
2022-08-29T01:12:16.710Z,14.70
2022-08-29T01:14:47.555Z,14.70
2022-08-29T01:17:16.276Z,14.70
2022-08-29T01:19:46.057Z,14.60
2022-08-29T01:22:30.017Z,14.60
2022-08-29T01:24:57.373Z,14.60
2022-08-29T01:27:27.131Z,14.70
2022-08-29T01:29:53.961Z,14.80
2022-08-29T01:32:21.584Z,14.80
2022-08-29T01:34:48.425Z,14.80
2022-08-29T01:37:16.021Z,14.80
2022-08-29T01:39:43.851Z,14.80
2022-08-29T01:42:21.405Z,14.80
2022-08-29T01:44:58.056Z,14.70
2022-08-29T01:47:26.664Z,14.70
2022-08-29T01:49:53.563Z,14.60
2022-08-29T01:52:20.847Z,14.60
2022-08-29T01:54:47.779Z,14.60
2022-08-29T01:57:15.356Z,14.50
2022-08-29T01:59:42.566Z,14.50
2022-08-29T02:02:11.959Z,14.50
2022-08-29T02:04:40.903Z,14.40
2022-08-29T02:07:12.434Z,14.50
2022-08-29T02:09:40.031Z,14.40
2022-08-29T02:12:13.802Z,14.40
2022-08-29T02:14:41.244Z,14.40
2022-08-29T02:17:08.382Z,14.50
2022-08-29T02:19:35.873Z,14.40
2022-08-29T02:22:02.816Z,14.40
2022-08-29T02:24:29.971Z,14.40
2022-08-29T02:26:57.533Z,14.40
2022-08-29T02:29:24.885Z,14.30
2022-08-29T02:31:51.813Z,14.30
2022-08-29T02:34:18.959Z,14.30
2022-08-29T02:36:46.486Z,14.30
2022-08-29T02:39:16.193Z,14.30
2022-08-29T02:41:44.554Z,14.30
2022-08-29T02:44:11.580Z,14.20
2022-08-29T02:46:38.443Z,14.20
2022-08-29T02:49:05.285Z,14.10
2022-08-29T02:51:32.891Z,14.10
2022-08-29T02:54:00.659Z,14.10
2022-08-29T02:56:28.125Z,14.00
2022-08-29T02:58:54.941Z,14.00
2022-08-29T03:01:35.960Z,14.00
2022-08-29T03:04:03.283Z,14.00
2022-08-29T03:06:30.102Z,14.00
2022-08-29T03:08:56.900Z,13.90
2022-08-29T03:11:24.135Z,13.90
2022-08-29T03:13:50.945Z,13.90
2022-08-29T03:16:18.406Z,13.90
2022-08-29T03:18:45.295Z,13.90
2022-08-29T03:21:16.302Z,14.00
2022-08-29T03:23:44.143Z,14.00
2022-08-29T03:26:11.007Z,14.10
2022-08-29T03:28:37.854Z,14.10
2022-08-29T03:31:05.223Z,14.10
2022-08-29T03:33:32.063Z,14.20
2022-08-29T03:35:58.898Z,14.20
2022-08-29T03:38:25.767Z,14.20
2022-08-29T03:40:53.497Z,14.30
2022-08-29T03:43:25.110Z,14.40
2022-08-29T03:45:52.636Z,14.50
2022-08-29T03:48:19.450Z,14.50
2022-08-29T03:50:47.549Z,14.60
2022-08-29T03:53:14.378Z,14.60
2022-08-29T03:55:41.714Z,14.70
2022-08-29T03:58:08.538Z,14.80
2022-08-29T04:00:35.620Z,15.00
2022-08-29T04:03:02.462Z,15.20
2022-08-29T04:05:29.318Z,15.50
2022-08-29T04:07:57.537Z,15.80
2022-08-29T04:10:28.883Z,16.10
2022-08-29T04:12:55.943Z,16.50
2022-08-29T04:15:23.782Z,16.90
2022-08-29T04:17:58.401Z,17.30
2022-08-29T04:20:27.041Z,17.80
2022-08-29T04:22:54.629Z,18.30
2022-08-29T04:25:22.269Z,18.70
2022-08-29T04:27:49.733Z,19.00
2022-08-29T04:30:18.050Z,19.20
2022-08-29T04:32:45.885Z,19.40
2022-08-29T04:35:13.666Z,19.60
2022-08-29T04:37:41.124Z,19.90
2022-08-29T04:40:09.160Z,20.10
2022-08-29T04:42:37.211Z,20.50
2022-08-29T04:45:04.896Z,20.90
2022-08-29T04:47:31.745Z,21.20
2022-08-29T04:49:59.950Z,21.50
2022-08-29T04:52:27.086Z,21.80
2022-08-29T04:54:54.178Z,22.10
2022-08-29T04:57:21.297Z,22.20
2022-08-29T04:59:52.861Z,22.20
2022-08-29T05:02:19.731Z,22.40
2022-08-29T05:04:48.214Z,22.80
2022-08-29T05:07:15.075Z,23.20
2022-08-29T05:09:41.873Z,23.50
2022-08-29T05:12:10.330Z,24.00
2022-08-29T05:14:37.389Z,24.20
2022-08-29T05:17:04.183Z,24.20
2022-08-29T05:19:34.287Z,24.20
2022-08-29T05:22:02.278Z,24.30
2022-08-29T05:24:31.532Z,24.50
2022-08-29T05:26:58.334Z,24.70
2022-08-29T05:29:25.246Z,25.00
2022-08-29T05:31:52.051Z,25.20
2022-08-29T05:34:34.774Z,25.40
2022-08-29T05:37:03.685Z,25.80
2022-08-29T05:39:30.499Z,26.20
2022-08-29T05:41:57.966Z,26.60
2022-08-29T05:44:24.787Z,27.00
2022-08-29T05:46:51.612Z,27.20
2022-08-29T05:49:18.564Z,27.40
2022-08-29T05:51:45.394Z,27.30
2022-08-29T05:54:12.189Z,27.40
2022-08-29T05:56:39.428Z,27.50
2022-08-29T05:59:06.309Z,27.60
2022-08-29T06:01:34.176Z,27.60
2022-08-29T06:04:01.642Z,27.60
2022-08-29T06:06:29.120Z,27.80
2022-08-29T06:08:56.600Z,27.90
2022-08-29T06:11:25.229Z,27.80
2022-08-29T06:13:52.246Z,27.50
2022-08-29T06:16:20.549Z,26.70
2022-08-29T06:18:47.754Z,25.90
2022-08-29T06:21:14.783Z,25.00
2022-08-29T06:23:42.902Z,24.30
2022-08-29T06:26:10.542Z,24.10
2022-08-29T06:28:38.328Z,24.10
2022-08-29T06:31:09.206Z,24.40
2022-08-29T06:33:36.272Z,24.80
2022-08-29T06:36:04.076Z,25.30
2022-08-29T06:38:30.902Z,25.80
2022-08-29T06:40:57.772Z,26.20
2022-08-29T06:43:24.741Z,26.60
2022-08-29T06:45:51.641Z,27.00
2022-08-29T06:48:18.467Z,27.50
2022-08-29T06:50:45.775Z,27.90
2022-08-29T06:53:26.841Z,28.40
2022-08-29T06:55:54.516Z,28.80
2022-08-29T06:58:21.397Z,29.20
2022-08-29T07:00:49.892Z,29.50
2022-08-29T07:03:17.010Z,29.50
2022-08-29T07:05:43.994Z,29.50
2022-08-29T07:08:10.801Z,29.20
2022-08-29T07:10:37.694Z,28.80
2022-08-29T07:13:04.575Z,28.60
2022-08-29T07:15:31.509Z,28.40
2022-08-29T07:18:00.110Z,28.20
2022-08-29T07:20:27.089Z,27.90
2022-08-29T07:22:55.702Z,27.70
2022-08-29T07:25:22.577Z,27.50
2022-08-29T07:27:52.126Z,27.30
2022-08-29T07:30:21.106Z,27.20
2022-08-29T07:32:48.082Z,27.20
2022-08-29T07:35:18.626Z,27.20
2022-08-29T07:37:51.978Z,27.30
2022-08-29T07:40:18.910Z,27.60
2022-08-29T07:42:45.725Z,27.70
2022-08-29T07:45:12.551Z,27.90
2022-08-29T07:47:39.487Z,28.10
2022-08-29T07:50:07.464Z,28.30
2022-08-29T07:52:35.066Z,28.60
2022-08-29T07:55:01.900Z,28.80
2022-08-29T07:57:28.695Z,29.10
2022-08-29T07:59:55.530Z,29.30
2022-08-29T08:02:22.507Z,29.40
2022-08-29T08:04:52.346Z,29.30
2022-08-29T08:07:19.497Z,29.20
2022-08-29T08:09:48.527Z,29.10
2022-08-29T08:12:15.356Z,29.10
2022-08-29T08:14:42.180Z,29.00
2022-08-29T08:17:09.512Z,28.90
2022-08-29T08:19:37.298Z,28.80
2022-08-29T08:22:04.152Z,28.70
2022-08-29T08:24:31.008Z,28.60
2022-08-29T08:26:58.048Z,28.60
2022-08-29T08:29:24.818Z,28.60
2022-08-29T08:31:51.680Z,28.50
2022-08-29T08:34:19.279Z,28.40
2022-08-29T08:36:46.181Z,28.20
2022-08-29T08:39:14.137Z,28.10
2022-08-29T08:41:51.061Z,28.10
2022-08-29T08:44:27.064Z,28.10
2022-08-29T08:46:58.361Z,27.90
2022-08-29T08:49:33.891Z,27.70
2022-08-29T08:52:02.130Z,27.60
2022-08-29T08:54:33.243Z,27.40
2022-08-29T08:57:11.670Z,27.40
2022-08-29T08:59:42.738Z,27.20
2022-08-29T09:02:28.306Z,27.20
2022-08-29T09:04:57.953Z,27.20
2022-08-29T09:07:33.747Z,27.30
2022-08-29T09:10:01.357Z,27.50
2022-08-29T09:12:37.409Z,27.60
2022-08-29T09:15:07.780Z,27.80
2022-08-29T09:17:43.256Z,28.00
2022-08-29T09:20:13.347Z,28.10
2022-08-29T09:22:42.449Z,28.30
2022-08-29T09:25:10.588Z,28.40
2022-08-29T09:27:37.630Z,28.30
2022-08-29T09:30:08.093Z,28.40
2022-08-29T09:32:35.435Z,28.50
2022-08-29T09:35:17.259Z,28.60
2022-08-29T09:37:54.667Z,28.80
2022-08-29T09:40:21.904Z,28.90
2022-08-29T09:42:59.888Z,29.00
2022-08-29T09:45:26.728Z,29.00
2022-08-29T09:48:14.441Z,29.00
2022-08-29T09:50:41.531Z,29.10
2022-08-29T09:53:14.325Z,29.10
2022-08-29T09:55:52.526Z,29.20
2022-08-29T09:58:20.064Z,29.20
2022-08-29T10:01:06.459Z,29.30
2022-08-29T10:03:34.551Z,29.30
2022-08-29T10:06:20.862Z,29.40
2022-08-29T10:08:57.884Z,29.50
2022-08-29T10:11:32.105Z,29.40
2022-08-29T10:14:05.244Z,29.40
2022-08-29T10:16:48.544Z,29.50
2022-08-29T10:19:21.286Z,29.50
2022-08-29T10:21:48.189Z,29.50
2022-08-29T10:24:17.338Z,29.50
2022-08-29T10:27:05.152Z,29.70
2022-08-29T10:29:36.393Z,29.90
2022-08-29T10:32:03.316Z,29.90
2022-08-29T10:34:30.118Z,30.00
2022-08-29T10:37:10.738Z,30.00
2022-08-29T10:39:46.061Z,30.00
2022-08-29T10:42:16.179Z,29.90
2022-08-29T10:44:56.166Z,30.00
2022-08-29T10:47:30.023Z,29.90
2022-08-29T10:49:56.815Z,29.90
2022-08-29T10:52:44.513Z,29.80
2022-08-29T10:55:24.436Z,29.70
2022-08-29T10:57:59.441Z,29.70
2022-08-29T11:00:50.048Z,29.70
2022-08-29T11:03:32.014Z,29.80
2022-08-29T11:06:02.005Z,29.90
2022-08-29T11:08:31.876Z,30.00
2022-08-29T11:10:58.774Z,30.10
2022-08-29T11:13:28.422Z,30.20
2022-08-29T11:15:58.067Z,30.10
2022-08-29T11:18:24.997Z,30.00
2022-08-29T11:20:53.623Z,29.90
2022-08-29T11:23:30.736Z,29.80
2022-08-29T11:26:00.751Z,29.80
2022-08-29T11:28:50.810Z,29.60
2022-08-29T11:31:17.752Z,29.40
2022-08-29T11:34:03.534Z,29.20
2022-08-29T11:36:30.482Z,29.20
2022-08-29T11:39:07.665Z,29.00
2022-08-29T11:41:46.107Z,28.80
2022-08-29T11:44:31.243Z,28.60
2022-08-29T11:46:59.013Z,28.50
2022-08-29T11:49:57.459Z,28.40
2022-08-29T11:52:26.457Z,28.30
2022-08-29T11:55:10.611Z,28.00
2022-08-29T11:57:45.922Z,27.60
2022-08-29T12:00:33.197Z,27.30
2022-08-29T12:03:00.502Z,27.20
2022-08-29T12:05:51.065Z,27.20
2022-08-29T12:08:36.923Z,26.90
2022-08-29T12:11:04.808Z,26.70
2022-08-29T12:13:43.906Z,26.50
2022-08-29T12:16:12.258Z,26.30
2022-08-29T12:18:43.055Z,26.40
2022-08-29T12:21:32.344Z,26.40
2022-08-29T12:23:59.427Z,26.30
2022-08-29T12:26:43.337Z,26.30
2022-08-29T12:29:19.474Z,26.30
2022-08-29T12:32:22.150Z,26.40
2022-08-29T12:34:57.819Z,26.40
2022-08-29T12:37:24.911Z,26.50
2022-08-29T12:40:04.299Z,26.40
2022-08-29T12:42:37.331Z,26.30
2022-08-29T12:45:12.304Z,26.20
2022-08-29T12:47:45.317Z,26.30
2022-08-29T12:50:18.415Z,26.50
2022-08-29T12:52:57.445Z,26.50
2022-08-29T12:55:27.668Z,26.60
2022-08-29T12:57:56.994Z,26.70
2022-08-29T13:00:26.487Z,26.70
2022-08-29T13:03:19.480Z,26.70
2022-08-29T13:05:47.106Z,26.70
2022-08-29T13:08:34.237Z,26.70
2022-08-29T13:11:03.433Z,26.70
2022-08-29T13:13:30.552Z,26.80
2022-08-29T13:16:01.567Z,27.00
2022-08-29T13:18:29.704Z,27.20
2022-08-29T13:21:06.059Z,27.50
2022-08-29T13:23:34.703Z,27.80
2022-08-29T13:26:09.177Z,28.10
2022-08-29T13:28:36.061Z,28.30
2022-08-29T13:31:04.015Z,28.30
2022-08-29T13:33:35.574Z,28.40
2022-08-29T13:36:22.818Z,28.50
2022-08-29T13:39:09.550Z,28.60
2022-08-29T13:41:37.656Z,28.70
2022-08-29T13:44:04.535Z,28.80
2022-08-29T13:46:31.770Z,28.80
2022-08-29T13:48:59.708Z,28.80
2022-08-29T13:51:26.676Z,28.60
2022-08-29T13:53:53.509Z,28.40
2022-08-29T13:56:23.136Z,28.20
2022-08-29T13:58:51.323Z,27.80
2022-08-29T14:01:30.516Z,27.60
2022-08-29T14:04:01.276Z,27.50
2022-08-29T14:06:33.707Z,27.30
2022-08-29T14:09:01.434Z,27.20
2022-08-29T14:11:28.491Z,27.00
2022-08-29T14:13:55.383Z,26.90
2022-08-29T14:16:22.897Z,26.80
2022-08-29T14:18:50.092Z,26.70
2022-08-29T14:21:17.443Z,26.70
2022-08-29T14:23:44.338Z,26.50
2022-08-29T14:26:11.141Z,26.30
2022-08-29T14:28:40.759Z,26.20
2022-08-29T14:31:08.998Z,26.10
2022-08-29T14:33:35.888Z,26.10
2022-08-29T14:36:02.999Z,26.10
2022-08-29T14:38:29.832Z,26.10
2022-08-29T14:40:57.041Z,26.10
2022-08-29T14:43:23.911Z,26.20
2022-08-29T14:45:51.539Z,26.20
2022-08-29T14:48:18.458Z,26.10
2022-08-29T14:50:45.303Z,26.00
2022-08-29T14:53:12.198Z,26.00
2022-08-29T14:55:39.073Z,25.90
2022-08-29T14:58:05.878Z,25.80
2022-08-29T15:00:34.128Z,25.70
2022-08-29T15:03:01.520Z,25.60
2022-08-29T15:05:28.583Z,25.50
2022-08-29T15:07:55.562Z,25.40
2022-08-29T15:10:23.450Z,25.30
2022-08-29T15:12:50.598Z,25.30
2022-08-29T15:15:18.253Z,25.20
2022-08-29T15:17:45.430Z,25.10
2022-08-29T15:23:00.562Z,25.10
2022-08-29T15:25:27.396Z,25.00
2022-08-29T15:27:54.206Z,25.00
2022-08-29T15:30:23.214Z,25.00
2022-08-29T15:32:50.238Z,24.90
2022-08-29T15:35:17.055Z,24.90
2022-08-29T15:37:44.125Z,24.80
2022-08-29T15:40:13.316Z,24.90
2022-08-29T15:42:40.603Z,24.80
2022-08-29T15:45:08.296Z,24.70
2022-08-29T15:47:35.548Z,24.70
2022-08-29T15:50:02.802Z,24.60
2022-08-29T15:52:31.209Z,24.60
2022-08-29T15:54:58.260Z,24.50
2022-08-29T15:57:25.524Z,24.50
2022-08-29T15:59:57.960Z,24.50
2022-08-29T16:02:25.619Z,24.40
2022-08-29T16:04:57.431Z,24.30
2022-08-29T16:07:28.795Z,24.20
2022-08-29T16:09:56.653Z,24.10
2022-08-29T16:12:23.538Z,23.90
2022-08-29T16:14:59.741Z,23.80
2022-08-29T16:17:29.824Z,23.70
2022-08-29T16:19:56.881Z,23.60
2022-08-29T16:22:24.042Z,23.60
2022-08-29T16:24:51.012Z,23.50
2022-08-29T16:27:22.089Z,23.50
2022-08-29T16:29:48.938Z,23.50
2022-08-29T16:32:15.789Z,23.50
2022-08-29T16:34:42.630Z,23.40
2022-08-29T16:37:09.583Z,23.30
2022-08-29T16:39:36.553Z,23.20
2022-08-29T16:42:03.490Z,23.20
2022-08-29T16:44:31.925Z,23.10
2022-08-29T16:46:58.777Z,23.00
2022-08-29T16:49:25.868Z,22.90
2022-08-29T16:51:52.737Z,22.80
2022-08-29T16:54:19.689Z,22.80
2022-08-29T16:56:46.501Z,22.70
2022-08-29T16:59:13.712Z,22.60
2022-08-29T17:01:45.636Z,22.60
2022-08-29T17:04:24.051Z,22.50
2022-08-29T17:06:51.967Z,22.50
2022-08-29T17:09:22.266Z,22.40
2022-08-29T17:11:49.728Z,22.40
2022-08-29T17:14:18.220Z,22.40
2022-08-29T17:16:46.243Z,22.30
2022-08-29T17:19:14.466Z,22.20
2022-08-29T17:21:41.506Z,22.20
2022-08-29T17:24:08.486Z,22.20
2022-08-29T17:26:36.178Z,22.10
2022-08-29T17:29:06.653Z,22.00
2022-08-29T17:31:33.577Z,22.00
2022-08-29T17:34:06.775Z,22.00
2022-08-29T17:36:36.583Z,21.90
2022-08-29T17:39:04.114Z,21.90
2022-08-29T17:41:31.370Z,21.80
2022-08-29T17:43:59.572Z,21.80
2022-08-29T17:46:26.409Z,21.80
2022-08-29T17:48:53.371Z,21.70
2022-08-29T17:51:20.241Z,21.70
2022-08-29T17:53:49.870Z,21.70
2022-08-29T17:56:20.979Z,21.70
2022-08-29T17:58:47.907Z,21.70
2022-08-29T18:01:16.559Z,21.70
2022-08-29T18:03:44.990Z,21.70
2022-08-29T18:06:12.452Z,21.70
2022-08-29T18:08:42.271Z,21.70
2022-08-29T18:11:15.748Z,21.60
2022-08-29T18:13:42.781Z,21.40
2022-08-29T18:16:10.634Z,21.10
2022-08-29T18:18:39.372Z,20.80
2022-08-29T18:21:06.490Z,20.60
2022-08-29T18:23:33.847Z,20.30
2022-08-29T18:26:01.566Z,20.10
2022-08-29T18:28:28.674Z,19.90
2022-08-29T18:30:55.564Z,19.70
2022-08-29T18:33:22.570Z,19.60
2022-08-29T18:35:49.366Z,19.50
2022-08-29T18:38:16.378Z,19.40
2022-08-29T18:40:44.140Z,19.30
2022-08-29T18:43:13.134Z,19.20
2022-08-29T18:45:40.524Z,19.10
2022-08-29T18:48:08.221Z,19.00
2022-08-29T18:50:35.247Z,18.90
2022-08-29T18:53:11.503Z,18.90
2022-08-29T18:55:48.763Z,18.80
2022-08-29T18:58:18.807Z,18.70
2022-08-29T19:00:46.043Z,18.70
2022-08-29T19:03:13.463Z,18.60
2022-08-29T19:05:42.109Z,18.50
2022-08-29T19:10:39.421Z,18.50
2022-08-29T19:13:08.222Z,18.40
2022-08-29T19:15:41.380Z,18.30
2022-08-29T19:18:09.348Z,18.30
2022-08-29T19:20:55.126Z,18.10
2022-08-29T19:23:22.498Z,18.00
2022-08-29T19:25:50.175Z,17.90
2022-08-29T19:28:18.185Z,17.80
2022-08-29T19:30:45.023Z,17.70
2022-08-29T19:33:12.461Z,17.50
2022-08-29T19:35:39.379Z,17.40
2022-08-29T19:38:06.920Z,17.40
2022-08-29T19:40:36.484Z,17.30
2022-08-29T19:43:13.709Z,17.30
2022-08-29T19:45:42.267Z,17.20
2022-08-29T19:48:10.698Z,17.20
2022-08-29T19:50:41.815Z,17.10
2022-08-29T19:53:10.099Z,17.10
2022-08-29T19:55:37.433Z,17.10
2022-08-29T19:58:04.973Z,17.00
2022-08-29T20:00:32.358Z,17.10
2022-08-29T20:02:59.709Z,17.10
2022-08-29T20:05:26.595Z,17.10
2022-08-29T20:07:53.534Z,17.10
2022-08-29T20:10:22.464Z,17.10
2022-08-29T20:12:50.375Z,17.10
2022-08-29T20:15:17.266Z,17.10
2022-08-29T20:17:44.229Z,17.10
2022-08-29T20:20:16.538Z,17.00
2022-08-29T20:22:43.886Z,17.00
2022-08-29T20:25:10.783Z,16.90
2022-08-29T20:27:38.464Z,17.00
2022-08-29T20:30:06.655Z,16.90
2022-08-29T20:32:35.417Z,16.90
2022-08-29T20:35:02.280Z,16.80
2022-08-29T20:37:29.084Z,16.80
2022-08-29T20:39:56.200Z,16.70
2022-08-29T20:42:24.813Z,16.70
2022-08-29T20:44:54.433Z,16.70
2022-08-29T20:47:21.718Z,16.60
2022-08-29T20:49:49.214Z,16.60
2022-08-29T20:52:18.607Z,16.60
2022-08-29T20:54:46.357Z,16.60
2022-08-29T20:57:14.891Z,16.60
2022-08-29T20:59:42.905Z,16.60
2022-08-29T21:02:10.542Z,16.60
2022-08-29T21:04:56.088Z,16.60
2022-08-29T21:07:23.158Z,16.60
2022-08-29T21:09:50.570Z,16.60
2022-08-29T21:12:18.081Z,16.70
2022-08-29T21:14:44.996Z,16.70
2022-08-29T21:17:12.196Z,16.70
2022-08-29T21:19:39.477Z,16.70
2022-08-29T21:22:07.256Z,16.70
2022-08-29T21:24:34.055Z,16.70
2022-08-29T21:27:00.962Z,16.80
2022-08-29T21:29:27.759Z,16.80
2022-08-29T21:31:54.572Z,16.80
2022-08-29T21:34:22.345Z,16.90
2022-08-29T21:36:49.526Z,16.90
2022-08-29T21:39:27.924Z,16.90
2022-08-29T21:41:55.721Z,16.90
2022-08-29T21:44:22.641Z,16.90
2022-08-29T21:46:49.581Z,16.90
2022-08-29T21:49:17.941Z,17.00
2022-08-29T21:51:45.818Z,17.10
2022-08-29T21:54:14.023Z,17.20
2022-08-29T21:56:41.202Z,17.20
2022-08-29T21:59:08.814Z,17.20
2022-08-29T22:01:39.024Z,17.30
2022-08-29T22:04:08.195Z,17.30
2022-08-29T22:06:36.327Z,17.30
2022-08-29T22:09:03.974Z,17.30
2022-08-29T22:11:37.967Z,17.40
2022-08-29T22:14:05.897Z,17.30
2022-08-29T22:16:32.829Z,17.30
2022-08-29T22:19:02.759Z,17.30
2022-08-29T22:21:31.619Z,17.40
2022-08-29T22:23:58.548Z,17.30
2022-08-29T22:26:26.027Z,17.30
2022-08-29T22:28:52.907Z,17.30
2022-08-29T22:31:20.313Z,17.40
2022-08-29T22:33:47.556Z,17.40
2022-08-29T22:36:15.149Z,17.40
2022-08-29T22:38:42.612Z,17.40
2022-08-29T22:41:10.589Z,17.30
2022-08-29T22:43:37.661Z,17.30
2022-08-29T22:46:15.875Z,17.30
2022-08-29T22:48:43.438Z,17.20
2022-08-29T22:51:11.484Z,17.20
2022-08-29T22:53:38.354Z,17.20
2022-08-29T22:56:05.504Z,17.20
2022-08-29T22:58:32.313Z,17.30
2022-08-29T23:00:59.149Z,17.30
2022-08-29T23:03:25.975Z,17.20
2022-08-29T23:05:52.904Z,17.20
2022-08-29T23:08:21.164Z,17.20
2022-08-29T23:10:49.273Z,17.10
2022-08-29T23:13:16.510Z,17.10
2022-08-29T23:15:43.628Z,17.10
2022-08-29T23:18:10.479Z,17.10
2022-08-29T23:20:37.287Z,17.20
2022-08-29T23:23:08.580Z,17.20
2022-08-29T23:25:35.581Z,17.20
2022-08-29T23:28:02.529Z,17.20
2022-08-29T23:30:29.335Z,17.20
2022-08-29T23:32:56.318Z,17.20
2022-08-29T23:35:23.453Z,17.20
2022-08-29T23:37:50.348Z,17.20
2022-08-29T23:40:18.279Z,17.20
2022-08-29T23:42:45.418Z,17.10
2022-08-29T23:45:12.389Z,17.10
2022-08-29T23:47:39.301Z,17.10
2022-08-29T23:50:06.322Z,17.10
2022-08-29T23:52:33.170Z,17.00
2022-08-29T23:55:00.687Z,17.00
2022-08-29T23:57:27.612Z,17.00
